Hauptseite
METAR-TAF:

METAR-TAF

Flughäfen :

Flughafen Annecy

Annecy, Frankreich

Breite: 45-55-45N, Länge: 006-05-56E, Höhe: 463 m

Beobachtung

Neuester Wetterbericht von vor 20 Minuten, um 10:30 UTC
Windstille
Temperatur 2°C
Luftfeuchtigkeit 69%
Luftdruck 1015 hPa
Sichtweite 10 km oder mehr
keine Wolken unter 1500 m und keine Kumulonimbus oder Gewitterwolken

METAR: LFLP 191030Z AUTO 00000KT CAVOK 02/M03 Q1015 NOSIG

Zeit: 11:50 (10:50 UTC)

Prognose

Neuester Wetterbericht von vor 2 Stunden und 50 Minuten, um 08:00 UTC
Gültige Prognose vom 19 um 09 UTC bis 20 um 09 UTC
Wind 3 kt aus unterschiedlichen Richtungen
Sichtweite 10 km oder mehr
keine Wolken unter 1500 m und keine Kumulonimbus oder Gewitterwolken
Wahrscheinlichkeit 30% :
Zeitweise
vom 20 um 03 UTC bis 20 um 09 UTC
Sichtweite: 0600 m
Nebelschwaden

TAF: LFLP 190800Z 1909/2009 VRB03KT CAVOK PROB30 TEMPO 2003/2009 0600 BCFG

Wetterbeobachtungen und Prognosen von mehr als 4000 Flughäfen (METAR und TAF Bericht).

Die verfügbaren Stationen werden durch gelbe und rote Markierungen auf der Karte dargestellt.

Führen Sie die Maus auf sie, um den Namen der Station zu sehen.

Darauf klicken, um die Beobachtung von Wetterbeobachtungen und Prognosen zu sehen.

Um die Karte zu ändern : klicken Sie auf den grünen Tasten mit einem schwarzen Kreuz Zum Vergrößern, auf den grünen Button mit einem Gedankenstrich zu verkleinern, oder auf die grünen Pfeile für benachbarte Karten.


METAR-TAF: